Airfield :
LOGIN :

Register | Disclaimer

   EN    FR    IT 

 










Legend :    VFR   Marginal VFR   IFR   Intensive IFR   Very Intensive IFR
Visi :
Ceiling :
>= 8 km
>= 3000ft
5 to 8 km
1000 to 3000 ft
1500m to 5 km
500 to 1000 ft
800 to 1500m
200 to 500 ft
< 800m
< 200 ft
Symbols :   Thunderstorms  Fog  Heavy snow  Heavy precipitations  Wind > 20 kt
SIGMETs :     Misc.  Thunderstorms  Icing  Turbulence  Mountain Waves  Volcanic Ashes







- Airport Elevation : 202 ft
- IATA code : LGW
- Download approach charts


EGKK - London Gatwick

CURRENT METAR :
  • 230450Z 22011KT 9999 BKN009 OVC014 13/12 Q0988

EXPIRED METARs :
  • 230420Z 22015KT 9999 BKN011 OVC015 13/12 Q0988
  • 230350Z 22015KT 9999 -RA SCT007 BKN010 OVC043 13/12 Q0987 RERA
  • 230320Z 20020G37KT 6000 RA BKN015 OVC020 14/11 Q0987
  • 230250Z 20020G33KT 9999 BKN021 OVC027 15/11 Q0987
  • 230220Z 20019G30KT 9999 BKN023 OVC029 15/11 Q0988

TAF TAF EGKK
Valid from the 23 at 00:00 until the 24 at 06:00 UTC


222255Z 2300/2406 20016G28KT 9999 SCT035
TEMPO 2300/2308 7000 SHRA
PROB30
TEMPO 2300/2304 19020G38KT 4000 +SHRA BKN014
BECMG 2304/2307 24015KT
PROB40
TEMPO 2304/2308 BKN012
PROB30
TEMPO 2310/2318 25018G28KT
TEMPO 2321/2405 7000 -RADZ BKN014
PROB30
TEMPO 2400/2404 4000 RADZ BKN009
No reported NOTAMs for that airfield.
1 SIGMET reported for the London FIR (EGTT) :
 
Severe turbulence
EGTT SIGMET 01 VALID 230200/230600 EGRR
EGTT LONDON FIR SEV TURB FCST SE OF LINE N5000 W00200 - N5500 E00126 SFC/FL060 MOV E 25KT NC=



MET'MAP, your aeronautical weather chart ! - Copyright ORBIFLY December 2007 - Disclaimer

ORBIFLY MET'MAP TEAM :

Programming & Development : Alexandra Zaïnal
Concept & Development : Baudouin d'Aumeries
Co-Development & Prog : Marc-Olivier Méhu
Technical & hardware support : Manuel Goepfert

Contact : metmap@orbifly.com




SOURCES & CREDITS :

   NOAA